sensor_id;sensor_type;location;lat;lon;timestamp;P1;durP1;ratioP1;P2;durP2;ratioP2
11588;SDS011;5850;51.360;12.362;2024-01-06T00:00:49;6.00;;;4.13;;
11588;SDS011;5850;51.360;12.362;2024-01-06T00:03:18;5.03;;;3.90;;
11588;SDS011;5850;51.360;12.362;2024-01-06T00:05:46;5.67;;;3.90;;
11588;SDS011;5850;51.360;12.362;2024-01-06T00:08:14;5.07;;;3.90;;
11588;SDS011;5850;51.360;12.362;2024-01-06T00:10:42;4.40;;;3.67;;
11588;SDS011;5850;51.360;12.362;2024-01-06T00:13:10;7.40;;;4.57;;
11588;SDS011;5850;51.360;12.362;2024-01-06T00:15:38;9.47;;;4.67;;
11588;SDS011;5850;51.360;12.362;2024-01-06T00:18:06;6.47;;;4.10;;
11588;SDS011;5850;51.360;12.362;2024-01-06T00:20:35;6.80;;;4.10;;
11588;SDS011;5850;51.360;12.362;2024-01-06T00:23:03;5.67;;;4.03;;
11588;SDS011;5850;51.360;12.362;2024-01-06T00:25:31;6.97;;;4.70;;
11588;SDS011;5850;51.360;12.362;2024-01-06T00:27:59;5.57;;;4.13;;
11588;SDS011;5850;51.360;12.362;2024-01-06T00:30:27;5.07;;;4.00;;
11588;SDS011;5850;51.360;12.362;2024-01-06T00:32:56;6.67;;;4.30;;
11588;SDS011;5850;51.360;12.362;2024-01-06T00:35:24;7.00;;;4.37;;
11588;SDS011;5850;51.360;12.362;2024-01-06T00:37:52;7.43;;;4.13;;
11588;SDS011;5850;51.360;12.362;2024-01-06T00:40:21;5.10;;;4.10;;
11588;SDS011;5850;51.360;12.362;2024-01-06T00:42:49;7.03;;;4.17;;
11588;SDS011;5850;51.360;12.362;2024-01-06T00:45:18;8.20;;;4.20;;
11588;SDS011;5850;51.360;12.362;2024-01-06T00:47:46;6.93;;;4.23;;
11588;SDS011;5850;51.360;12.362;2024-01-06T00:50:14;9.23;;;4.73;;
11588;SDS011;5850;51.360;12.362;2024-01-06T00:52:43;5.53;;;4.10;;
11588;SDS011;5850;51.360;12.362;2024-01-06T00:55:11;4.27;;;3.87;;
11588;SDS011;5850;51.360;12.362;2024-01-06T00:57:39;5.33;;;4.13;;
11588;SDS011;5850;51.360;12.362;2024-01-06T01:00:07;8.53;;;5.33;;
11588;SDS011;5850;51.360;12.362;2024-01-06T01:02:35;5.50;;;3.87;;
11588;SDS011;5850;51.360;12.362;2024-01-06T01:05:05;5.30;;;4.20;;
11588;SDS011;5850;51.360;12.362;2024-01-06T01:07:34;6.53;;;4.80;;
11588;SDS011;5850;51.360;12.362;2024-01-06T01:10:02;7.53;;;4.60;;
11588;SDS011;5850;51.360;12.362;2024-01-06T01:12:31;6.53;;;4.00;;
11588;SDS011;5850;51.360;12.362;2024-01-06T01:14:59;7.23;;;4.70;;
11588;SDS011;5850;51.360;12.362;2024-01-06T01:17:28;8.47;;;5.00;;
11588;SDS011;5850;51.360;12.362;2024-01-06T01:19:56;6.70;;;4.30;;
11588;SDS011;5850;51.360;12.362;2024-01-06T01:22:24;5.93;;;4.47;;
11588;SDS011;5850;51.360;12.362;2024-01-06T01:24:53;6.63;;;4.13;;
11588;SDS011;5850;51.360;12.362;2024-01-06T01:27:21;11.03;;;5.07;;
11588;SDS011;5850;51.360;12.362;2024-01-06T01:29:50;5.70;;;4.43;;
11588;SDS011;5850;51.360;12.362;2024-01-06T01:32:19;4.67;;;3.80;;
11588;SDS011;5850;51.360;12.362;2024-01-06T01:34:47;6.00;;;4.10;;
11588;SDS011;5850;51.360;12.362;2024-01-06T01:37:15;6.40;;;4.90;;
11588;SDS011;5850;51.360;12.362;2024-01-06T01:39:44;4.73;;;3.87;;
11588;SDS011;5850;51.360;12.362;2024-01-06T01:42:12;6.63;;;4.50;;
11588;SDS011;5850;51.360;12.362;2024-01-06T01:44:40;5.17;;;4.17;;
11588;SDS011;5850;51.360;12.362;2024-01-06T01:47:08;7.77;;;4.70;;
11588;SDS011;5850;51.360;12.362;2024-01-06T01:49:37;4.93;;;3.67;;
11588;SDS011;5850;51.360;12.362;2024-01-06T01:52:05;7.17;;;4.60;;
11588;SDS011;5850;51.360;12.362;2024-01-06T01:54:33;9.43;;;4.50;;
11588;SDS011;5850;51.360;12.362;2024-01-06T01:57:02;5.67;;;4.13;;
11588;SDS011;5850;51.360;12.362;2024-01-06T01:59:30;8.23;;;4.47;;
11588;SDS011;5850;51.360;12.362;2024-01-06T02:01:59;6.10;;;4.07;;
11588;SDS011;5850;51.360;12.362;2024-01-06T02:04:28;7.23;;;4.43;;
11588;SDS011;5850;51.360;12.362;2024-01-06T02:06:56;5.43;;;4.60;;
11588;SDS011;5850;51.360;12.362;2024-01-06T02:09:24;5.60;;;4.43;;
11588;SDS011;5850;51.360;12.362;2024-01-06T02:11:59;5.63;;;3.73;;
11588;SDS011;5850;51.360;12.362;2024-01-06T02:14:27;8.30;;;4.37;;
11588;SDS011;5850;51.360;12.362;2024-01-06T02:16:55;5.63;;;4.93;;
11588;SDS011;5850;51.360;12.362;2024-01-06T02:19:23;5.27;;;4.23;;
11588;SDS011;5850;51.360;12.362;2024-01-06T02:21:52;8.33;;;4.40;;
11588;SDS011;5850;51.360;12.362;2024-01-06T02:24:20;6.37;;;4.70;;
11588;SDS011;5850;51.360;12.362;2024-01-06T02:26:49;6.20;;;4.77;;
11588;SDS011;5850;51.360;12.362;2024-01-06T02:29:17;7.50;;;4.90;;
11588;SDS011;5850;51.360;12.362;2024-01-06T02:31:45;5.20;;;4.70;;
11588;SDS011;5850;51.360;12.362;2024-01-06T02:34:13;7.60;;;5.40;;
11588;SDS011;5850;51.360;12.362;2024-01-06T02:36:42;6.13;;;4.60;;
11588;SDS011;5850;51.360;12.362;2024-01-06T02:39:10;5.33;;;4.63;;
11588;SDS011;5850;51.360;12.362;2024-01-06T02:41:38;9.03;;;6.13;;
11588;SDS011;5850;51.360;12.362;2024-01-06T02:44:06;6.80;;;4.83;;
11588;SDS011;5850;51.360;12.362;2024-01-06T02:46:38;7.40;;;5.23;;
11588;SDS011;5850;51.360;12.362;2024-01-06T02:49:07;6.70;;;5.23;;
11588;SDS011;5850;51.360;12.362;2024-01-06T02:51:35;8.70;;;5.73;;
11588;SDS011;5850;51.360;12.362;2024-01-06T02:54:04;8.23;;;5.00;;
11588;SDS011;5850;51.360;12.362;2024-01-06T02:56:32;9.50;;;5.40;;
11588;SDS011;5850;51.360;12.362;2024-01-06T02:59:00;7.80;;;5.00;;
11588;SDS011;5850;51.360;12.362;2024-01-06T03:01:28;6.47;;;5.40;;
11588;SDS011;5850;51.360;12.362;2024-01-06T03:03:56;7.80;;;4.50;;
11588;SDS011;5850;51.360;12.362;2024-01-06T03:06:24;7.07;;;4.97;;
11588;SDS011;5850;51.360;12.362;2024-01-06T03:08:53;6.43;;;4.67;;
11588;SDS011;5850;51.360;12.362;2024-01-06T03:11:21;7.43;;;5.33;;
11588;SDS011;5850;51.360;12.362;2024-01-06T03:13:49;8.60;;;4.77;;
11588;SDS011;5850;51.360;12.362;2024-01-06T03:16:17;7.67;;;4.80;;
11588;SDS011;5850;51.360;12.362;2024-01-06T03:18:45;7.70;;;4.90;;
11588;SDS011;5850;51.360;12.362;2024-01-06T03:21:17;7.83;;;5.50;;
11588;SDS011;5850;51.360;12.362;2024-01-06T03:23:48;7.10;;;5.03;;
11588;SDS011;5850;51.360;12.362;2024-01-06T03:26:17;8.30;;;5.37;;
11588;SDS011;5850;51.360;12.362;2024-01-06T03:28:45;8.30;;;4.73;;
11588;SDS011;5850;51.360;12.362;2024-01-06T03:31:13;6.80;;;4.63;;
11588;SDS011;5850;51.360;12.362;2024-01-06T03:33:42;5.67;;;4.73;;
11588;SDS011;5850;51.360;12.362;2024-01-06T03:36:12;7.50;;;4.83;;
11588;SDS011;5850;51.360;12.362;2024-01-06T03:38:42;6.97;;;5.00;;
11588;SDS011;5850;51.360;12.362;2024-01-06T03:41:10;7.57;;;4.70;;
11588;SDS011;5850;51.360;12.362;2024-01-06T03:43:38;8.50;;;5.23;;
11588;SDS011;5850;51.360;12.362;2024-01-06T03:46:06;7.47;;;5.10;;
11588;SDS011;5850;51.360;12.362;2024-01-06T03:48:34;5.87;;;4.33;;
11588;SDS011;5850;51.360;12.362;2024-01-06T03:51:03;4.97;;;4.37;;
11588;SDS011;5850;51.360;12.362;2024-01-06T03:53:31;5.97;;;4.23;;
11588;SDS011;5850;51.360;12.362;2024-01-06T03:55:59;7.10;;;5.20;;
11588;SDS011;5850;51.360;12.362;2024-01-06T03:58:27;7.33;;;5.20;;
11588;SDS011;5850;51.360;12.362;2024-01-06T04:00:55;6.03;;;4.20;;
11588;SDS011;5850;51.360;12.362;2024-01-06T04:03:24;6.90;;;4.60;;
11588;SDS011;5850;51.360;12.362;2024-01-06T04:05:52;16.53;;;6.30;;
11588;SDS011;5850;51.360;12.362;2024-01-06T04:08:20;8.17;;;4.40;;
11588;SDS011;5850;51.360;12.362;2024-01-06T04:10:48;5.47;;;4.73;;
11588;SDS011;5850;51.360;12.362;2024-01-06T04:13:17;6.03;;;4.67;;
11588;SDS011;5850;51.360;12.362;2024-01-06T04:15:45;6.03;;;4.60;;
11588;SDS011;5850;51.360;12.362;2024-01-06T04:18:13;6.13;;;4.83;;
11588;SDS011;5850;51.360;12.362;2024-01-06T04:20:41;7.37;;;4.90;;
11588;SDS011;5850;51.360;12.362;2024-01-06T04:23:09;5.93;;;4.73;;
11588;SDS011;5850;51.360;12.362;2024-01-06T04:25:37;7.43;;;5.07;;
11588;SDS011;5850;51.360;12.362;2024-01-06T04:28:05;5.80;;;4.27;;
11588;SDS011;5850;51.360;12.362;2024-01-06T04:30:33;7.73;;;4.50;;
11588;SDS011;5850;51.360;12.362;2024-01-06T04:33:02;5.90;;;4.53;;
11588;SDS011;5850;51.360;12.362;2024-01-06T04:35:30;5.70;;;4.53;;
11588;SDS011;5850;51.360;12.362;2024-01-06T04:37:58;9.00;;;4.83;;
11588;SDS011;5850;51.360;12.362;2024-01-06T04:40:26;5.40;;;4.70;;
11588;SDS011;5850;51.360;12.362;2024-01-06T04:42:54;4.97;;;4.17;;
11588;SDS011;5850;51.360;12.362;2024-01-06T04:45:22;6.87;;;4.70;;
11588;SDS011;5850;51.360;12.362;2024-01-06T04:47:51;7.63;;;4.70;;
11588;SDS011;5850;51.360;12.362;2024-01-06T04:50:19;6.43;;;4.83;;
11588;SDS011;5850;51.360;12.362;2024-01-06T04:52:47;9.40;;;5.10;;
11588;SDS011;5850;51.360;12.362;2024-01-06T04:55:15;5.63;;;4.67;;
11588;SDS011;5850;51.360;12.362;2024-01-06T04:57:43;6.83;;;4.77;;
11588;SDS011;5850;51.360;12.362;2024-01-06T05:00:11;7.30;;;5.07;;
11588;SDS011;5850;51.360;12.362;2024-01-06T05:02:40;8.17;;;5.40;;
11588;SDS011;5850;51.360;12.362;2024-01-06T05:05:08;6.30;;;4.93;;
11588;SDS011;5850;51.360;12.362;2024-01-06T05:07:37;6.83;;;4.50;;
11588;SDS011;5850;51.360;12.362;2024-01-06T05:10:05;8.17;;;5.07;;
11588;SDS011;5850;51.360;12.362;2024-01-06T05:12:33;6.87;;;5.00;;
11588;SDS011;5850;51.360;12.362;2024-01-06T05:15:02;5.00;;;4.50;;
11588;SDS011;5850;51.360;12.362;2024-01-06T05:17:30;7.13;;;4.90;;
11588;SDS011;5850;51.360;12.362;2024-01-06T05:19:58;6.20;;;4.90;;
11588;SDS011;5850;51.360;12.362;2024-01-06T05:22:26;8.97;;;5.30;;
11588;SDS011;5850;51.360;12.362;2024-01-06T05:24:54;5.90;;;4.73;;
11588;SDS011;5850;51.360;12.362;2024-01-06T05:27:22;7.90;;;4.97;;
11588;SDS011;5850;51.360;12.362;2024-01-06T05:29:50;7.93;;;5.33;;
11588;SDS011;5850;51.360;12.362;2024-01-06T05:32:18;5.17;;;4.60;;
11588;SDS011;5850;51.360;12.362;2024-01-06T05:34:48;6.13;;;4.70;;
11588;SDS011;5850;51.360;12.362;2024-01-06T05:37:16;6.03;;;4.40;;
11588;SDS011;5850;51.360;12.362;2024-01-06T05:39:44;6.87;;;5.00;;
11588;SDS011;5850;51.360;12.362;2024-01-06T05:42:12;7.80;;;5.30;;
11588;SDS011;5850;51.360;12.362;2024-01-06T05:44:41;5.53;;;4.73;;
11588;SDS011;5850;51.360;12.362;2024-01-06T05:47:09;8.63;;;5.40;;
11588;SDS011;5850;51.360;12.362;2024-01-06T05:49:41;8.60;;;6.00;;
11588;SDS011;5850;51.360;12.362;2024-01-06T05:52:10;8.57;;;5.80;;
11588;SDS011;5850;51.360;12.362;2024-01-06T05:54:40;7.47;;;5.50;;
11588;SDS011;5850;51.360;12.362;2024-01-06T05:57:09;7.33;;;6.10;;
11588;SDS011;5850;51.360;12.362;2024-01-06T05:59:38;7.47;;;5.60;;
11588;SDS011;5850;51.360;12.362;2024-01-06T06:02:06;8.77;;;5.40;;
11588;SDS011;5850;51.360;12.362;2024-01-06T06:04:34;6.70;;;5.40;;
11588;SDS011;5850;51.360;12.362;2024-01-06T06:07:03;7.20;;;5.63;;
11588;SDS011;5850;51.360;12.362;2024-01-06T06:09:31;7.10;;;5.23;;
11588;SDS011;5850;51.360;12.362;2024-01-06T06:12:00;8.17;;;5.23;;
11588;SDS011;5850;51.360;12.362;2024-01-06T06:14:29;7.27;;;5.70;;
11588;SDS011;5850;51.360;12.362;2024-01-06T06:16:57;8.90;;;5.67;;
11588;SDS011;5850;51.360;12.362;2024-01-06T06:19:25;10.33;;;5.80;;
11588;SDS011;5850;51.360;12.362;2024-01-06T06:21:53;6.10;;;5.40;;
11588;SDS011;5850;51.360;12.362;2024-01-06T06:24:21;7.57;;;5.37;;
11588;SDS011;5850;51.360;12.362;2024-01-06T06:26:49;7.93;;;5.77;;
11588;SDS011;5850;51.360;12.362;2024-01-06T06:29:17;7.20;;;6.07;;
11588;SDS011;5850;51.360;12.362;2024-01-06T06:31:47;9.93;;;6.33;;
11588;SDS011;5850;51.360;12.362;2024-01-06T06:34:15;6.70;;;5.40;;
11588;SDS011;5850;51.360;12.362;2024-01-06T06:36:44;8.87;;;5.30;;
11588;SDS011;5850;51.360;12.362;2024-01-06T06:39:12;9.07;;;6.00;;
11588;SDS011;5850;51.360;12.362;2024-01-06T06:41:40;8.03;;;5.00;;
11588;SDS011;5850;51.360;12.362;2024-01-06T06:44:09;6.10;;;5.50;;
11588;SDS011;5850;51.360;12.362;2024-01-06T06:46:37;8.17;;;6.13;;
11588;SDS011;5850;51.360;12.362;2024-01-06T06:49:05;8.97;;;6.20;;
11588;SDS011;5850;51.360;12.362;2024-01-06T06:51:34;7.20;;;5.63;;
11588;SDS011;5850;51.360;12.362;2024-01-06T06:54:02;8.57;;;5.70;;
11588;SDS011;5850;51.360;12.362;2024-01-06T06:56:30;7.80;;;6.07;;
11588;SDS011;5850;51.360;12.362;2024-01-06T06:58:58;7.27;;;5.40;;
11588;SDS011;5850;51.360;12.362;2024-01-06T07:01:28;8.47;;;5.97;;
11588;SDS011;5850;51.360;12.362;2024-01-06T07:03:59;9.23;;;5.70;;
11588;SDS011;5850;51.360;12.362;2024-01-06T07:06:28;9.47;;;5.97;;
11588;SDS011;5850;51.360;12.362;2024-01-06T07:08:57;7.20;;;5.33;;
11588;SDS011;5850;51.360;12.362;2024-01-06T07:11:25;7.47;;;5.87;;
11588;SDS011;5850;51.360;12.362;2024-01-06T07:13:53;8.83;;;6.10;;
11588;SDS011;5850;51.360;12.362;2024-01-06T07:16:21;8.37;;;6.47;;
11588;SDS011;5850;51.360;12.362;2024-01-06T07:18:50;10.33;;;6.20;;
11588;SDS011;5850;51.360;12.362;2024-01-06T07:21:18;10.23;;;6.30;;
11588;SDS011;5850;51.360;12.362;2024-01-06T07:23:46;12.00;;;6.23;;
11588;SDS011;5850;51.360;12.362;2024-01-06T07:26:14;13.93;;;7.10;;
11588;SDS011;5850;51.360;12.362;2024-01-06T07:28:44;9.00;;;6.07;;
11588;SDS011;5850;51.360;12.362;2024-01-06T07:31:12;7.83;;;5.93;;
11588;SDS011;5850;51.360;12.362;2024-01-06T07:33:40;8.37;;;6.00;;
11588;SDS011;5850;51.360;12.362;2024-01-06T07:36:08;8.03;;;6.20;;
11588;SDS011;5850;51.360;12.362;2024-01-06T07:38:37;8.40;;;5.77;;
11588;SDS011;5850;51.360;12.362;2024-01-06T07:41:06;9.00;;;6.07;;
11588;SDS011;5850;51.360;12.362;2024-01-06T07:46:18;10.07;;;6.37;;
11588;SDS011;5850;51.360;12.362;2024-01-06T07:48:46;9.97;;;6.50;;
11588;SDS011;5850;51.360;12.362;2024-01-06T07:51:14;8.90;;;6.53;;
11588;SDS011;5850;51.360;12.362;2024-01-06T07:53:43;8.93;;;6.90;;
11588;SDS011;5850;51.360;12.362;2024-01-06T07:56:11;9.73;;;6.80;;
11588;SDS011;5850;51.360;12.362;2024-01-06T07:58:40;9.97;;;7.00;;
11588;SDS011;5850;51.360;12.362;2024-01-06T08:01:08;8.80;;;6.80;;
11588;SDS011;5850;51.360;12.362;2024-01-06T08:03:36;8.87;;;5.93;;
11588;SDS011;5850;51.360;12.362;2024-01-06T08:06:04;9.47;;;6.10;;
11588;SDS011;5850;51.360;12.362;2024-01-06T08:08:33;10.13;;;6.53;;
11588;SDS011;5850;51.360;12.362;2024-01-06T08:11:01;9.13;;;6.00;;
11588;SDS011;5850;51.360;12.362;2024-01-06T08:13:30;9.77;;;6.00;;
11588;SDS011;5850;51.360;12.362;2024-01-06T08:15:58;10.03;;;5.47;;
11588;SDS011;5850;51.360;12.362;2024-01-06T08:18:26;8.30;;;6.00;;
11588;SDS011;5850;51.360;12.362;2024-01-06T08:20:54;8.40;;;5.97;;
11588;SDS011;5850;51.360;12.362;2024-01-06T08:23:22;6.70;;;5.27;;
11588;SDS011;5850;51.360;12.362;2024-01-06T08:25:52;9.53;;;5.70;;
11588;SDS011;5850;51.360;12.362;2024-01-06T08:28:20;8.27;;;5.53;;
11588;SDS011;5850;51.360;12.362;2024-01-06T08:30:49;6.80;;;5.40;;
11588;SDS011;5850;51.360;12.362;2024-01-06T08:33:18;6.20;;;5.57;;
11588;SDS011;5850;51.360;12.362;2024-01-06T08:35:46;10.07;;;6.67;;
11588;SDS011;5850;51.360;12.362;2024-01-06T08:38:14;8.53;;;5.70;;
11588;SDS011;5850;51.360;12.362;2024-01-06T08:40:43;8.00;;;6.03;;
11588;SDS011;5850;51.360;12.362;2024-01-06T08:43:14;8.50;;;5.77;;
11588;SDS011;5850;51.360;12.362;2024-01-06T08:45:42;8.07;;;5.93;;
11588;SDS011;5850;51.360;12.362;2024-01-06T08:48:10;8.90;;;6.13;;
11588;SDS011;5850;51.360;12.362;2024-01-06T08:50:40;7.17;;;6.27;;
11588;SDS011;5850;51.360;12.362;2024-01-06T08:53:08;8.97;;;5.63;;
11588;SDS011;5850;51.360;12.362;2024-01-06T08:55:36;8.97;;;5.33;;
11588;SDS011;5850;51.360;12.362;2024-01-06T08:58:04;8.13;;;5.73;;
11588;SDS011;5850;51.360;12.362;2024-01-06T09:00:32;9.20;;;5.97;;
11588;SDS011;5850;51.360;12.362;2024-01-06T09:03:00;7.17;;;5.33;;
11588;SDS011;5850;51.360;12.362;2024-01-06T09:05:29;7.33;;;5.50;;
11588;SDS011;5850;51.360;12.362;2024-01-06T09:07:58;7.40;;;6.03;;
11588;SDS011;5850;51.360;12.362;2024-01-06T09:10:26;8.27;;;6.20;;
11588;SDS011;5850;51.360;12.362;2024-01-06T09:12:55;9.33;;;5.70;;
11588;SDS011;5850;51.360;12.362;2024-01-06T09:15:23;8.00;;;5.23;;
11588;SDS011;5850;51.360;12.362;2024-01-06T09:17:51;9.50;;;5.60;;
11588;SDS011;5850;51.360;12.362;2024-01-06T09:20:20;8.97;;;5.87;;
11588;SDS011;5850;51.360;12.362;2024-01-06T09:22:49;10.00;;;6.47;;
11588;SDS011;5850;51.360;12.362;2024-01-06T09:25:17;8.03;;;6.03;;
11588;SDS011;5850;51.360;12.362;2024-01-06T09:27:46;7.30;;;5.17;;
11588;SDS011;5850;51.360;12.362;2024-01-06T09:30:14;10.83;;;6.00;;
11588;SDS011;5850;51.360;12.362;2024-01-06T09:32:42;6.80;;;5.43;;
11588;SDS011;5850;51.360;12.362;2024-01-06T09:35:10;6.47;;;5.23;;
11588;SDS011;5850;51.360;12.362;2024-01-06T09:37:39;7.60;;;5.30;;
11588;SDS011;5850;51.360;12.362;2024-01-06T09:40:08;7.23;;;5.10;;
11588;SDS011;5850;51.360;12.362;2024-01-06T09:42:39;7.20;;;6.03;;
11588;SDS011;5850;51.360;12.362;2024-01-06T09:45:07;9.77;;;7.23;;
11588;SDS011;5850;51.360;12.362;2024-01-06T09:47:36;13.33;;;7.13;;
11588;SDS011;5850;51.360;12.362;2024-01-06T09:50:10;10.03;;;6.40;;
11588;SDS011;5850;51.360;12.362;2024-01-06T09:52:40;12.67;;;8.40;;
11588;SDS011;5850;51.360;12.362;2024-01-06T09:55:10;11.87;;;8.53;;
11588;SDS011;5850;51.360;12.362;2024-01-06T09:57:38;12.67;;;8.67;;
11588;SDS011;5850;51.360;12.362;2024-01-06T10:00:07;11.50;;;7.80;;
11588;SDS011;5850;51.360;12.362;2024-01-06T10:02:35;14.80;;;8.90;;
11588;SDS011;5850;51.360;12.362;2024-01-06T10:05:03;12.23;;;8.43;;
11588;SDS011;5850;51.360;12.362;2024-01-06T10:07:32;12.57;;;8.27;;
11588;SDS011;5850;51.360;12.362;2024-01-06T10:10:00;12.37;;;8.80;;
11588;SDS011;5850;51.360;12.362;2024-01-06T10:12:29;11.37;;;8.40;;
11588;SDS011;5850;51.360;12.362;2024-01-06T10:14:58;12.97;;;8.80;;
11588;SDS011;5850;51.360;12.362;2024-01-06T10:17:27;11.07;;;8.87;;
11588;SDS011;5850;51.360;12.362;2024-01-06T10:19:55;11.83;;;8.80;;
11588;SDS011;5850;51.360;12.362;2024-01-06T10:22:23;13.93;;;8.97;;
11588;SDS011;5850;51.360;12.362;2024-01-06T10:24:52;15.40;;;9.33;;
11588;SDS011;5850;51.360;12.362;2024-01-06T10:27:22;13.13;;;8.93;;
11588;SDS011;5850;51.360;12.362;2024-01-06T10:29:50;13.37;;;8.67;;
11588;SDS011;5850;51.360;12.362;2024-01-06T10:32:18;11.07;;;8.43;;
11588;SDS011;5850;51.360;12.362;2024-01-06T10:34:48;12.87;;;9.30;;
11588;SDS011;5850;51.360;12.362;2024-01-06T10:37:16;15.70;;;8.87;;
11588;SDS011;5850;51.360;12.362;2024-01-06T10:39:44;10.13;;;8.60;;
11588;SDS011;5850;51.360;12.362;2024-01-06T10:42:13;17.70;;;10.47;;
11588;SDS011;5850;51.360;12.362;2024-01-06T10:44:41;15.80;;;10.87;;
11588;SDS011;5850;51.360;12.362;2024-01-06T10:47:12;15.40;;;10.47;;
11588;SDS011;5850;51.360;12.362;2024-01-06T10:49:41;14.57;;;10.53;;
11588;SDS011;5850;51.360;12.362;2024-01-06T10:52:09;16.87;;;10.17;;
11588;SDS011;5850;51.360;12.362;2024-01-06T10:54:38;14.10;;;9.97;;
11588;SDS011;5850;51.360;12.362;2024-01-06T10:57:07;15.10;;;10.70;;
11588;SDS011;5850;51.360;12.362;2024-01-06T10:59:36;12.90;;;10.80;;
11588;SDS011;5850;51.360;12.362;2024-01-06T11:02:05;16.23;;;10.27;;
11588;SDS011;5850;51.360;12.362;2024-01-06T11:04:33;15.30;;;9.73;;
11588;SDS011;5850;51.360;12.362;2024-01-06T11:07:02;12.20;;;9.13;;
11588;SDS011;5850;51.360;12.362;2024-01-06T11:09:31;11.30;;;9.47;;
11588;SDS011;5850;51.360;12.362;2024-01-06T11:12:18;9.90;;;8.63;;
11588;SDS011;5850;51.360;12.362;2024-01-06T11:14:48;13.20;;;9.17;;
11588;SDS011;5850;51.360;12.362;2024-01-06T11:20:25;12.83;;;9.20;;
11588;SDS011;5850;51.360;12.362;2024-01-06T11:22:54;10.20;;;7.90;;
11588;SDS011;5850;51.360;12.362;2024-01-06T11:25:22;13.00;;;9.07;;
11588;SDS011;5850;51.360;12.362;2024-01-06T11:27:50;11.43;;;8.73;;
11588;SDS011;5850;51.360;12.362;2024-01-06T11:30:24;12.20;;;8.70;;
11588;SDS011;5850;51.360;12.362;2024-01-06T11:32:57;11.37;;;9.00;;
11588;SDS011;5850;51.360;12.362;2024-01-06T11:35:27;14.40;;;9.17;;
11588;SDS011;5850;51.360;12.362;2024-01-06T11:37:56;13.07;;;9.53;;
11588;SDS011;5850;51.360;12.362;2024-01-06T11:40:33;13.90;;;9.53;;
11588;SDS011;5850;51.360;12.362;2024-01-06T11:45:38;15.37;;;10.27;;
11588;SDS011;5850;51.360;12.362;2024-01-06T11:48:09;12.87;;;10.17;;
11588;SDS011;5850;51.360;12.362;2024-01-06T11:50:39;11.93;;;10.33;;
11588;SDS011;5850;51.360;12.362;2024-01-06T11:53:08;13.57;;;10.63;;
11588;SDS011;5850;51.360;12.362;2024-01-06T11:55:40;14.30;;;10.90;;
11588;SDS011;5850;51.360;12.362;2024-01-06T11:58:08;13.30;;;10.93;;
11588;SDS011;5850;51.360;12.362;2024-01-06T12:00:37;15.17;;;10.53;;
11588;SDS011;5850;51.360;12.362;2024-01-06T12:03:07;16.57;;;11.57;;
11588;SDS011;5850;51.360;12.362;2024-01-06T12:05:36;12.53;;;10.90;;
11588;SDS011;5850;51.360;12.362;2024-01-06T12:08:04;16.47;;;10.80;;
11588;SDS011;5850;51.360;12.362;2024-01-06T12:10:34;13.63;;;10.33;;
11588;SDS011;5850;51.360;12.362;2024-01-06T12:13:10;15.63;;;10.90;;
11588;SDS011;5850;51.360;12.362;2024-01-06T12:15:43;16.73;;;11.30;;
11588;SDS011;5850;51.360;12.362;2024-01-06T12:18:12;13.93;;;10.53;;
11588;SDS011;5850;51.360;12.362;2024-01-06T12:20:41;13.63;;;10.43;;
11588;SDS011;5850;51.360;12.362;2024-01-06T12:23:11;12.80;;;10.47;;
11588;SDS011;5850;51.360;12.362;2024-01-06T12:25:42;12.20;;;9.77;;
11588;SDS011;5850;51.360;12.362;2024-01-06T12:28:13;13.43;;;10.77;;
11588;SDS011;5850;51.360;12.362;2024-01-06T12:30:42;15.00;;;10.47;;
11588;SDS011;5850;51.360;12.362;2024-01-06T12:33:11;16.60;;;11.27;;
11588;SDS011;5850;51.360;12.362;2024-01-06T12:35:40;15.63;;;11.80;;
11588;SDS011;5850;51.360;12.362;2024-01-06T12:38:09;14.37;;;11.87;;
11588;SDS011;5850;51.360;12.362;2024-01-06T12:40:37;15.40;;;12.63;;
11588;SDS011;5850;51.360;12.362;2024-01-06T12:43:07;19.73;;;13.03;;
11588;SDS011;5850;51.360;12.362;2024-01-06T12:45:35;17.10;;;13.83;;
11588;SDS011;5850;51.360;12.362;2024-01-06T12:48:03;19.87;;;13.73;;
11588;SDS011;5850;51.360;12.362;2024-01-06T12:50:31;20.87;;;14.73;;
11588;SDS011;5850;51.360;12.362;2024-01-06T12:52:59;21.37;;;14.43;;
11588;SDS011;5850;51.360;12.362;2024-01-06T12:55:27;19.80;;;15.13;;
11588;SDS011;5850;51.360;12.362;2024-01-06T12:58:02;22.80;;;16.03;;
11588;SDS011;5850;51.360;12.362;2024-01-06T13:00:30;25.37;;;17.47;;
11588;SDS011;5850;51.360;12.362;2024-01-06T13:03:02;25.37;;;16.53;;
11588;SDS011;5850;51.360;12.362;2024-01-06T13:05:31;23.10;;;16.63;;
11588;SDS011;5850;51.360;12.362;2024-01-06T13:07:59;24.67;;;16.23;;
11588;SDS011;5850;51.360;12.362;2024-01-06T13:10:28;25.07;;;17.63;;
11588;SDS011;5850;51.360;12.362;2024-01-06T13:12:56;26.10;;;17.70;;
11588;SDS011;5850;51.360;12.362;2024-01-06T13:15:25;26.27;;;18.00;;
11588;SDS011;5850;51.360;12.362;2024-01-06T13:17:53;27.90;;;17.70;;
11588;SDS011;5850;51.360;12.362;2024-01-06T13:20:23;28.10;;;18.07;;
11588;SDS011;5850;51.360;12.362;2024-01-06T13:22:51;29.17;;;19.80;;
11588;SDS011;5850;51.360;12.362;2024-01-06T13:25:19;29.77;;;19.43;;
11588;SDS011;5850;51.360;12.362;2024-01-06T13:27:48;36.57;;;22.97;;
11588;SDS011;5850;51.360;12.362;2024-01-06T13:30:16;34.67;;;21.70;;
11588;SDS011;5850;51.360;12.362;2024-01-06T13:32:47;40.33;;;23.73;;
11588;SDS011;5850;51.360;12.362;2024-01-06T13:35:17;40.53;;;23.73;;
11588;SDS011;5850;51.360;12.362;2024-01-06T13:37:45;39.10;;;23.57;;
11588;SDS011;5850;51.360;12.362;2024-01-06T13:40:14;40.33;;;24.53;;
11588;SDS011;5850;51.360;12.362;2024-01-06T13:42:49;43.10;;;24.00;;
11588;SDS011;5850;51.360;12.362;2024-01-06T13:45:17;41.57;;;23.77;;
11588;SDS011;5850;51.360;12.362;2024-01-06T13:47:45;43.03;;;25.73;;
11588;SDS011;5850;51.360;12.362;2024-01-06T13:50:15;43.77;;;26.17;;
11588;SDS011;5850;51.360;12.362;2024-01-06T13:52:43;39.17;;;24.37;;
11588;SDS011;5850;51.360;12.362;2024-01-06T13:55:12;42.70;;;23.63;;
11588;SDS011;5850;51.360;12.362;2024-01-06T13:57:40;45.43;;;25.70;;
11588;SDS011;5850;51.360;12.362;2024-01-06T14:00:09;43.27;;;25.40;;
11588;SDS011;5850;51.360;12.362;2024-01-06T14:02:45;42.70;;;24.57;;
11588;SDS011;5850;51.360;12.362;2024-01-06T14:05:14;43.13;;;24.27;;
11588;SDS011;5850;51.360;12.362;2024-01-06T14:07:42;45.80;;;25.33;;
11588;SDS011;5850;51.360;12.362;2024-01-06T14:10:13;43.57;;;24.17;;
11588;SDS011;5850;51.360;12.362;2024-01-06T14:12:41;44.13;;;24.03;;
11588;SDS011;5850;51.360;12.362;2024-01-06T14:15:10;45.63;;;26.13;;
11588;SDS011;5850;51.360;12.362;2024-01-06T14:17:38;45.67;;;25.37;;
11588;SDS011;5850;51.360;12.362;2024-01-06T14:20:07;47.70;;;26.13;;
11588;SDS011;5850;51.360;12.362;2024-01-06T14:22:38;49.47;;;26.23;;
11588;SDS011;5850;51.360;12.362;2024-01-06T14:25:08;50.57;;;27.70;;
11588;SDS011;5850;51.360;12.362;2024-01-06T14:27:36;49.40;;;27.47;;
11588;SDS011;5850;51.360;12.362;2024-01-06T14:30:04;50.77;;;26.53;;
11588;SDS011;5850;51.360;12.362;2024-01-06T14:32:35;48.30;;;27.23;;
11588;SDS011;5850;51.360;12.362;2024-01-06T14:35:05;53.23;;;26.73;;
11588;SDS011;5850;51.360;12.362;2024-01-06T14:37:33;52.27;;;27.60;;
11588;SDS011;5850;51.360;12.362;2024-01-06T14:40:01;55.33;;;25.90;;
11588;SDS011;5850;51.360;12.362;2024-01-06T14:42:31;48.67;;;26.07;;
11588;SDS011;5850;51.360;12.362;2024-01-06T14:45:00;55.30;;;29.10;;
11588;SDS011;5850;51.360;12.362;2024-01-06T14:47:28;46.80;;;26.47;;
11588;SDS011;5850;51.360;12.362;2024-01-06T14:49:58;48.70;;;27.03;;
11588;SDS011;5850;51.360;12.362;2024-01-06T14:52:26;49.53;;;26.00;;
11588;SDS011;5850;51.360;12.362;2024-01-06T14:54:54;51.67;;;29.00;;
11588;SDS011;5850;51.360;12.362;2024-01-06T14:57:23;52.87;;;27.60;;